createdAt,value
2019-02-20T00:01:28.654Z,99.90
2019-02-20T00:04:18.815Z,99.90
2019-02-20T00:07:09.074Z,99.90
2019-02-20T00:10:01.133Z,99.90
2019-02-20T00:12:52.735Z,99.90
2019-02-20T00:15:43.173Z,99.90
2019-02-20T00:18:33.588Z,99.90
2019-02-20T00:21:24.026Z,99.90
2019-02-20T00:24:14.475Z,99.90
2019-02-20T00:27:04.916Z,99.90
2019-02-20T00:29:55.198Z,99.90
2019-02-20T00:32:45.946Z,99.90
2019-02-20T00:35:36.435Z,99.90
2019-02-20T00:38:26.834Z,99.90
2019-02-20T00:41:16.776Z,99.90
2019-02-20T00:44:26.316Z,99.90
2019-02-20T00:47:33.951Z,99.90
2019-02-20T00:50:25.954Z,99.90
2019-02-20T00:53:21.874Z,99.90
2019-02-20T00:56:12.513Z,99.90
2019-02-20T00:59:03.309Z,99.90
2019-02-20T01:01:53.995Z,99.90
2019-02-20T01:04:44.176Z,99.90
2019-02-20T01:07:34.415Z,99.90
2019-02-20T01:10:25.874Z,99.90
2019-02-20T01:13:16.759Z,99.90
2019-02-20T01:16:07.383Z,99.90
2019-02-20T01:18:58.175Z,99.90
2019-02-20T01:21:48.782Z,99.90
2019-02-20T01:24:38.835Z,99.90
2019-02-20T01:27:28.923Z,99.90
2019-02-20T01:30:19.394Z,99.90
2019-02-20T01:33:09.734Z,99.90
2019-02-20T01:36:02.195Z,99.90
2019-02-20T01:38:53.698Z,99.90
2019-02-20T01:41:43.854Z,99.90
2019-02-20T01:44:34.594Z,99.90
2019-02-20T01:47:24.833Z,99.90
2019-02-20T01:50:15.737Z,99.90
2019-02-20T01:53:10.248Z,99.90
2019-02-20T01:55:58.274Z,99.90
2019-02-20T01:58:48.434Z,99.90
2019-02-20T02:01:39.015Z,99.90
2019-02-20T02:04:29.395Z,99.90
2019-02-20T02:07:19.937Z,99.90
2019-02-20T02:10:10.375Z,99.90
2019-02-20T02:13:01.555Z,99.90
2019-02-20T02:15:52.274Z,99.90
2019-02-20T02:18:42.814Z,99.90
2019-02-20T02:21:33.055Z,99.90
2019-02-20T02:24:23.288Z,99.90
2019-02-20T02:27:14.124Z,99.90
2019-02-20T02:30:05.376Z,99.90
2019-02-20T02:32:57.343Z,99.90
2019-02-20T02:35:48.094Z,99.90
2019-02-20T02:38:38.979Z,99.90
2019-02-20T02:41:29.564Z,99.90
2019-02-20T02:44:20.914Z,99.90
2019-02-20T02:47:11.355Z,99.90
2019-02-20T02:50:02.093Z,99.90
2019-02-20T02:52:52.434Z,99.90
2019-02-20T02:55:42.545Z,99.90
2019-02-20T02:58:32.926Z,99.90
2019-02-20T03:01:53.312Z,99.90
2019-02-20T03:04:44.614Z,99.90
2019-02-20T03:07:35.214Z,99.90
2019-02-20T03:10:26.014Z,99.90
2019-02-20T03:13:17.553Z,99.90
2019-02-20T03:16:07.955Z,99.90
2019-02-20T03:18:58.617Z,99.90
2019-02-20T03:21:49.036Z,99.90
2019-02-20T03:24:39.773Z,99.90
2019-02-20T03:27:30.680Z,99.90
2019-02-20T03:30:21.211Z,99.90
2019-02-20T03:33:11.823Z,99.90
2019-02-20T03:36:02.495Z,99.90
2019-02-20T03:38:53.699Z,99.90
2019-02-20T03:41:44.234Z,99.90
2019-02-20T03:44:34.275Z,99.90
2019-02-20T03:47:25.079Z,99.90
2019-02-20T03:50:15.254Z,99.90
2019-02-20T03:53:05.234Z,99.90
2019-02-20T03:55:56.754Z,99.90
2019-02-20T03:58:47.091Z,99.90
2019-02-20T04:01:37.834Z,99.90
2019-02-20T04:04:28.869Z,99.90
2019-02-20T04:07:20.893Z,99.90
2019-02-20T04:10:12.077Z,99.90
2019-02-20T04:13:02.535Z,99.90
2019-02-20T04:15:52.554Z,99.90
2019-02-20T04:18:43.696Z,99.90
2019-02-20T04:21:35.297Z,99.90
2019-02-20T04:24:26.164Z,99.90
2019-02-20T04:27:16.715Z,99.90
2019-02-20T04:30:07.295Z,99.90
2019-02-20T04:32:58.517Z,99.90
2019-02-20T04:35:49.653Z,99.90
2019-02-20T04:38:39.914Z,99.90
2019-02-20T04:41:30.292Z,99.90
2019-02-20T04:44:20.540Z,99.90
2019-02-20T04:47:10.839Z,99.90
2019-02-20T04:50:01.514Z,99.90
2019-02-20T04:52:52.396Z,99.90
2019-02-20T04:55:42.371Z,99.90
2019-02-20T04:58:33.094Z,99.90
2019-02-20T05:01:23.114Z,99.90
2019-02-20T05:04:13.816Z,99.90
2019-02-20T05:07:04.939Z,99.90
2019-02-20T05:09:55.151Z,99.90
2019-02-20T05:12:45.494Z,99.90
2019-02-20T05:15:35.508Z,99.90
2019-02-20T05:18:25.061Z,99.90
2019-02-20T05:21:15.274Z,99.90
2019-02-20T05:24:06.021Z,99.90
2019-02-20T05:26:55.923Z,99.90
2019-02-20T05:29:46.495Z,99.90
2019-02-20T05:32:37.122Z,99.90
2019-02-20T05:35:27.287Z,99.90
2019-02-20T05:38:18.175Z,99.90
2019-02-20T05:41:08.935Z,99.90
2019-02-20T05:43:58.957Z,99.90
2019-02-20T05:46:49.153Z,99.90
2019-02-20T05:49:39.033Z,99.90
2019-02-20T05:52:29.674Z,99.90
2019-02-20T05:55:19.891Z,99.90
2019-02-20T05:58:10.315Z,99.90
2019-02-20T06:01:00.495Z,99.90
2019-02-20T06:03:50.653Z,99.90
2019-02-20T06:06:40.299Z,99.90
2019-02-20T06:09:31.133Z,99.90
2019-02-20T06:12:21.994Z,99.90
2019-02-20T06:15:11.910Z,99.90
2019-02-20T06:18:02.438Z,99.90
2019-02-20T06:20:53.696Z,99.90
2019-02-20T06:23:44.576Z,99.90
2019-02-20T06:26:34.694Z,99.90
2019-02-20T06:29:25.358Z,99.90
2019-02-20T06:32:15.374Z,99.90
2019-02-20T06:35:05.857Z,99.90
2019-02-20T06:37:56.938Z,99.90
2019-02-20T06:40:46.789Z,99.90
2019-02-20T06:43:37.073Z,99.90
2019-02-20T06:46:27.383Z,99.90
2019-02-20T06:49:17.873Z,99.90
2019-02-20T06:52:08.267Z,99.90
2019-02-20T06:54:59.129Z,99.90
2019-02-20T06:57:48.922Z,99.90
2019-02-20T07:00:39.033Z,99.90
2019-02-20T07:03:29.078Z,99.90
2019-02-20T07:06:34.335Z,99.90
2019-02-20T07:10:28.114Z,99.90
2019-02-20T07:13:44.821Z,99.90
2019-02-20T07:16:59.661Z,99.90
2019-02-20T07:20:15.315Z,99.90
2019-02-20T07:23:37.175Z,99.90
2019-02-20T07:26:54.121Z,99.90
2019-02-20T07:29:47.574Z,99.90
2019-02-20T07:32:37.814Z,99.90
2019-02-20T07:35:27.741Z,99.90
2019-02-20T07:38:18.615Z,99.90
2019-02-20T07:41:08.419Z,99.90
2019-02-20T07:43:58.714Z,99.90
2019-02-20T07:46:48.574Z,99.90
2019-02-20T07:49:38.899Z,99.90
2019-02-20T07:52:32.203Z,99.90
2019-02-20T07:55:22.487Z,99.90
2019-02-20T07:58:12.185Z,99.90
2019-02-20T08:01:02.553Z,99.90
2019-02-20T08:03:52.639Z,99.90
2019-02-20T08:06:42.614Z,99.90
2019-02-20T08:09:32.697Z,99.90
2019-02-20T08:12:23.455Z,99.90
2019-02-20T08:15:13.616Z,99.90
2019-02-20T08:18:04.194Z,99.90
2019-02-20T08:20:54.061Z,99.90
2019-02-20T08:23:44.356Z,99.90
2019-02-20T08:26:34.474Z,99.90
2019-02-20T08:29:24.342Z,99.90
2019-02-20T08:32:14.479Z,99.90
2019-02-20T08:35:04.507Z,99.90
2019-02-20T08:37:54.595Z,99.90
2019-02-20T08:40:44.847Z,99.90
2019-02-20T08:43:34.993Z,99.90
2019-02-20T08:46:24.832Z,99.90
2019-02-20T08:49:14.897Z,99.90
2019-02-20T08:52:05.411Z,99.90
2019-02-20T08:54:56.323Z,99.90
2019-02-20T08:57:46.161Z,99.90
2019-02-20T09:00:36.083Z,99.90
2019-02-20T09:03:27.369Z,99.90
2019-02-20T09:06:17.598Z,99.90
2019-02-20T09:09:08.057Z,99.90
2019-02-20T09:11:59.763Z,99.90
2019-02-20T09:14:50.239Z,99.90
2019-02-20T09:17:40.343Z,99.90
2019-02-20T09:20:30.395Z,99.90
2019-02-20T09:23:20.191Z,99.90
2019-02-20T09:26:10.441Z,99.50
2019-02-20T09:29:00.458Z,99.10
2019-02-20T09:31:50.562Z,97.90
2019-02-20T09:34:40.376Z,95.70
2019-02-20T09:37:30.344Z,94.50
2019-02-20T09:40:20.193Z,93.50
2019-02-20T09:43:10.337Z,92.40
2019-02-20T09:46:00.351Z,93.30
2019-02-20T09:48:50.590Z,94.70
2019-02-20T09:51:41.525Z,94.40
2019-02-20T09:54:31.748Z,95.60
2019-02-20T09:57:25.102Z,96.70
2019-02-20T10:00:15.711Z,96.90
2019-02-20T10:03:05.570Z,97.90
2019-02-20T10:05:55.297Z,98.00
2019-02-20T10:08:45.206Z,97.90
2019-02-20T10:11:35.710Z,96.60
2019-02-20T10:14:25.874Z,96.50
2019-02-20T10:17:15.982Z,96.20
2019-02-20T10:20:06.282Z,96.00
2019-02-20T10:22:56.786Z,96.00
2019-02-20T10:25:47.026Z,95.40
2019-02-20T10:28:36.877Z,94.40
2019-02-20T10:31:26.719Z,95.00
2019-02-20T10:34:16.682Z,94.80
2019-02-20T10:37:07.623Z,92.30
2019-02-20T10:39:57.894Z,90.50
2019-02-20T10:42:48.414Z,86.10
2019-02-20T10:45:38.812Z,85.70
2019-02-20T10:48:29.055Z,82.10
2019-02-20T10:51:19.293Z,77.50
2019-02-20T10:54:09.353Z,73.40
2019-02-20T10:56:59.493Z,69.20
2019-02-20T10:59:49.304Z,67.10
2019-02-20T11:02:39.324Z,67.50
2019-02-20T11:05:30.014Z,67.10
2019-02-20T11:08:20.537Z,69.70
2019-02-20T11:11:10.653Z,70.30
2019-02-20T11:14:00.895Z,70.50
2019-02-20T11:16:51.647Z,69.20
2019-02-20T11:19:42.073Z,68.40
2019-02-20T11:22:33.183Z,64.80
2019-02-20T11:25:23.778Z,60.00
2019-02-20T11:28:14.291Z,58.70
2019-02-20T11:31:04.434Z,56.60
2019-02-20T11:33:54.433Z,57.20
2019-02-20T11:36:44.195Z,58.00
2019-02-20T11:39:37.630Z,61.00
2019-02-20T11:42:26.173Z,63.10
2019-02-20T11:45:16.553Z,63.70
2019-02-20T11:48:07.665Z,64.70
2019-02-20T11:50:58.476Z,66.20
2019-02-20T11:53:49.374Z,65.60
2019-02-20T11:56:39.338Z,67.00
2019-02-20T11:59:29.541Z,64.10
2019-02-20T12:02:20.613Z,61.80
2019-02-20T12:05:11.671Z,58.70
2019-02-20T12:08:02.328Z,55.20
2019-02-20T12:10:52.251Z,54.40
2019-02-20T12:13:42.255Z,53.00
2019-02-20T12:16:33.006Z,50.80
2019-02-20T12:19:25.318Z,49.30
2019-02-20T12:22:15.735Z,49.80
2019-02-20T12:25:06.214Z,50.20
2019-02-20T12:27:56.439Z,49.80
2019-02-20T12:30:46.655Z,50.60
2019-02-20T12:33:36.576Z,51.10
2019-02-20T12:36:26.496Z,52.50
2019-02-20T12:39:16.574Z,50.70
2019-02-20T12:42:06.749Z,51.00
2019-02-20T12:44:58.573Z,53.20
2019-02-20T12:47:49.435Z,53.50
2019-02-20T12:50:39.643Z,52.70
2019-02-20T12:53:29.658Z,52.00
2019-02-20T12:56:19.934Z,52.10
2019-02-20T12:59:10.160Z,53.10
2019-02-20T13:02:00.813Z,53.20
2019-02-20T13:04:51.032Z,53.00
2019-02-20T13:07:41.377Z,53.20
2019-02-20T13:10:32.073Z,53.00
2019-02-20T13:13:22.494Z,52.80
2019-02-20T13:16:13.329Z,54.90
2019-02-20T13:19:04.033Z,53.20
2019-02-20T13:21:54.392Z,53.90
2019-02-20T13:24:44.459Z,53.70
2019-02-20T13:27:35.093Z,51.90
2019-02-20T13:30:25.303Z,53.10
2019-02-20T13:33:15.378Z,54.20
2019-02-20T13:36:06.286Z,55.50
2019-02-20T13:38:56.214Z,57.00
2019-02-20T13:41:47.135Z,58.20
2019-02-20T13:44:37.515Z,58.80
2019-02-20T13:47:28.236Z,59.50
2019-02-20T13:50:18.578Z,59.50
2019-02-20T13:53:08.739Z,60.50
2019-02-20T13:55:58.926Z,61.30
2019-02-20T13:58:50.974Z,60.90
2019-02-20T14:01:40.943Z,61.00
2019-02-20T14:04:32.581Z,61.40
2019-02-20T14:07:23.221Z,59.10
2019-02-20T14:10:13.949Z,57.40
2019-02-20T14:13:04.747Z,54.50
2019-02-20T14:15:54.992Z,52.60
2019-02-20T14:18:45.194Z,51.00
2019-02-20T14:21:35.915Z,49.10
2019-02-20T14:24:26.014Z,47.30
2019-02-20T14:27:17.277Z,48.30
2019-02-20T14:30:07.710Z,49.30
2019-02-20T14:32:58.681Z,51.30
2019-02-20T14:35:49.218Z,53.20
2019-02-20T14:38:40.435Z,54.90
2019-02-20T14:41:31.654Z,56.80
2019-02-20T14:44:22.335Z,57.80
2019-02-20T14:47:13.197Z,58.90
2019-02-20T14:50:04.854Z,60.20
2019-02-20T14:52:55.934Z,62.80
2019-02-20T14:55:46.665Z,65.80
2019-02-20T14:58:42.354Z,67.60
2019-02-20T15:01:32.734Z,69.10
2019-02-20T15:04:23.295Z,70.80
2019-02-20T15:07:21.274Z,71.40
2019-02-20T15:10:12.335Z,72.60
2019-02-20T15:13:02.857Z,73.80
2019-02-20T15:15:52.902Z,75.50
2019-02-20T15:18:43.250Z,77.20
2019-02-20T15:21:33.479Z,78.40
2019-02-20T15:24:23.898Z,80.00
2019-02-20T15:27:13.500Z,81.20
2019-02-20T15:30:04.376Z,83.30
2019-02-20T15:32:54.163Z,83.90
2019-02-20T15:35:44.472Z,86.00
2019-02-20T15:38:34.637Z,86.30
2019-02-20T15:41:25.566Z,88.10
2019-02-20T15:44:16.914Z,89.60
2019-02-20T15:47:07.922Z,90.70
2019-02-20T15:49:58.656Z,91.80
2019-02-20T15:52:49.953Z,93.00
2019-02-20T15:55:40.133Z,94.30
2019-02-20T15:58:31.304Z,95.40
2019-02-20T16:01:21.899Z,96.20
2019-02-20T16:04:12.554Z,97.00
2019-02-20T16:07:03.014Z,97.70
2019-02-20T16:09:53.701Z,98.60
2019-02-20T16:12:44.734Z,99.60
2019-02-20T16:15:35.022Z,99.90
2019-02-20T16:18:25.414Z,99.90
2019-02-20T16:21:16.174Z,99.90
2019-02-20T16:24:06.796Z,99.90
2019-02-20T16:26:56.839Z,99.90
2019-02-20T16:29:47.657Z,99.90
2019-02-20T16:32:37.695Z,99.90
2019-02-20T16:35:28.574Z,99.90
2019-02-20T16:38:19.116Z,99.90
2019-02-20T16:41:09.534Z,99.90
2019-02-20T16:43:59.116Z,99.90
2019-02-20T16:46:49.352Z,99.90
2019-02-20T16:49:39.218Z,99.90
2019-02-20T16:52:30.015Z,99.90
2019-02-20T16:55:20.305Z,99.90
2019-02-20T16:58:12.274Z,99.90
2019-02-20T17:01:02.478Z,99.90
2019-02-20T17:03:53.874Z,99.90
2019-02-20T17:06:44.556Z,99.90
2019-02-20T17:09:34.713Z,99.90
2019-02-20T17:12:25.394Z,99.90
2019-02-20T17:15:16.875Z,99.90
2019-02-20T17:18:07.678Z,99.90
2019-02-20T17:20:58.474Z,99.90
2019-02-20T17:23:49.033Z,99.90
2019-02-20T17:26:39.616Z,99.90
2019-02-20T17:29:29.843Z,99.90
2019-02-20T17:32:21.056Z,99.90
2019-02-20T17:35:10.982Z,99.90
2019-02-20T17:38:01.177Z,99.90
2019-02-20T17:40:52.415Z,99.90
2019-02-20T17:43:44.293Z,99.90
2019-02-20T17:46:34.916Z,99.90
2019-02-20T17:49:25.475Z,99.90
2019-02-20T17:52:15.658Z,99.90
2019-02-20T17:55:06.472Z,99.90
2019-02-20T17:57:56.899Z,99.90
2019-02-20T18:00:48.074Z,99.90
2019-02-20T18:03:38.335Z,99.90
2019-02-20T18:06:28.724Z,99.90
2019-02-20T18:09:19.100Z,99.90
2019-02-20T18:12:09.897Z,99.90
2019-02-20T18:14:59.839Z,99.90
2019-02-20T18:17:50.069Z,99.90
2019-02-20T18:20:43.317Z,99.90
2019-02-20T18:23:35.287Z,99.90
2019-02-20T18:26:25.277Z,99.90
2019-02-20T18:29:16.084Z,99.90
2019-02-20T18:32:07.112Z,99.90
2019-02-20T18:34:57.359Z,99.90
2019-02-20T18:37:47.794Z,99.90
2019-02-20T18:40:38.409Z,99.90
2019-02-20T18:43:47.257Z,99.90
2019-02-20T18:46:38.109Z,99.90
2019-02-20T18:49:28.301Z,99.90
2019-02-20T18:52:18.572Z,99.90
2019-02-20T18:55:10.406Z,99.90
2019-02-20T18:58:00.910Z,99.90
2019-02-20T19:00:50.838Z,99.90
2019-02-20T19:03:41.036Z,99.90
2019-02-20T19:06:31.395Z,99.90
2019-02-20T19:09:26.016Z,99.90
2019-02-20T19:12:40.175Z,99.90
2019-02-20T19:15:43.408Z,99.90
2019-02-20T19:19:26.181Z,99.90
2019-02-20T19:22:49.036Z,99.90
2019-02-20T19:26:15.655Z,99.90
2019-02-20T19:29:41.676Z,99.90
2019-02-20T19:32:59.489Z,99.90
2019-02-20T19:36:18.178Z,99.90
2019-02-20T19:40:16.915Z,99.90
2019-02-20T19:43:36.756Z,99.90
2019-02-20T19:47:05.233Z,99.90
2019-02-20T19:50:22.042Z,99.90
2019-02-20T19:53:23.100Z,99.90
2019-02-20T19:56:37.107Z,99.90
2019-02-20T20:00:00.345Z,99.90
2019-02-20T20:03:29.547Z,99.90
2019-02-20T20:06:59.001Z,99.90
2019-02-20T20:10:29.072Z,99.90
2019-02-20T20:13:47.503Z,99.90
2019-02-20T20:17:19.341Z,99.90
2019-02-20T20:20:20.373Z,99.90
2019-02-20T20:24:22.708Z,99.90
2019-02-20T20:27:58.187Z,99.90
2019-02-20T20:31:19.952Z,99.90
2019-02-20T20:34:56.355Z,99.90
2019-02-20T20:38:19.794Z,99.90
2019-02-20T20:41:56.474Z,99.90
2019-02-20T20:45:20.774Z,99.90
2019-02-20T20:49:03.379Z,99.90
2019-02-20T20:52:37.593Z,99.90
2019-02-20T20:56:03.098Z,99.90
2019-02-20T20:59:35.795Z,99.90
2019-02-20T21:02:42.694Z,99.90
2019-02-20T21:06:05.294Z,99.90
2019-02-20T21:09:14.034Z,99.90
2019-02-20T21:12:38.014Z,99.90
2019-02-20T21:15:56.563Z,99.90
2019-02-20T21:19:24.113Z,99.90
2019-02-20T21:23:03.963Z,99.90
2019-02-20T21:26:23.615Z,99.90
2019-02-20T21:29:51.555Z,99.90
2019-02-20T21:33:16.559Z,99.90
2019-02-20T21:36:46.023Z,99.90
2019-02-20T21:40:11.194Z,99.90
2019-02-20T21:43:40.220Z,99.90
2019-02-20T21:46:53.373Z,99.90
2019-02-20T21:50:34.397Z,99.90
2019-02-20T21:54:04.094Z,99.90
2019-02-20T21:57:05.194Z,99.90
2019-02-20T22:00:16.335Z,99.90
2019-02-20T22:03:56.555Z,99.90
2019-02-20T22:07:21.535Z,99.90
2019-02-20T22:11:05.217Z,99.90
2019-02-20T22:14:43.617Z,99.90
2019-02-20T22:18:08.014Z,99.90
2019-02-20T22:21:54.114Z,99.90
2019-02-20T22:25:16.435Z,99.90
2019-02-20T22:28:59.714Z,99.90
2019-02-20T22:32:03.117Z,99.90
2019-02-20T22:35:06.293Z,99.90
2019-02-20T22:38:48.442Z,99.90
2019-02-20T22:42:12.403Z,99.90
2019-02-20T22:45:47.386Z,99.90
2019-02-20T22:49:24.735Z,99.90
2019-02-20T22:52:29.673Z,99.90
2019-02-20T22:55:55.443Z,99.90
2019-02-20T22:59:17.908Z,99.90
2019-02-20T23:02:43.569Z,99.90
2019-02-20T23:06:17.214Z,99.90
2019-02-20T23:09:25.115Z,99.90
2019-02-20T23:12:38.602Z,99.90
2019-02-20T23:15:28.683Z,99.90
2019-02-20T23:18:18.670Z,99.90
2019-02-20T23:21:09.853Z,99.90
2019-02-20T23:24:00.920Z,99.90
2019-02-20T23:26:51.451Z,99.90
2019-02-20T23:29:41.835Z,99.90
2019-02-20T23:32:31.746Z,99.90
2019-02-20T23:35:22.756Z,99.90
2019-02-20T23:38:13.607Z,99.90
2019-02-20T23:41:05.515Z,99.90
2019-02-20T23:43:56.713Z,99.90
2019-02-20T23:46:47.215Z,99.90
2019-02-20T23:49:38.174Z,99.90
2019-02-20T23:52:28.716Z,99.90
2019-02-20T23:55:20.236Z,99.90
2019-02-20T23:58:10.573Z,99.90
